Time;durP1;ratioP1;P1;durP2;ratioP2;P2;SDS_P1;SDS_P2;PMS_P1;PMS_P2;Temp;Humidity;BMP_temperature;BMP_pressure;BME280_temperature;BME280_humidity;BME280_pressure;Samples;Min_cycle;Max_cycle;Signal;HPM_P1;HPM_P2
2024/01/07 00:00:35;;;;;;;11.50;9.23;;;4.20;99.90;;;;;;5017406;28;20433;-75
2024/01/07 00:03:00;;;;;;;12.77;9.17;;;4.10;99.90;;;;;;5002209;28;20256;-78
2024/01/07 00:05:26;;;;;;;14.30;10.60;;;4.10;99.90;;;;;;5034339;28;20224;-76
2024/01/07 00:07:51;;;;;;;16.23;9.80;;;4.10;99.90;;;;;;5033114;28;20183;-74
2024/01/07 00:10:17;;;;;;;12.60;10.53;;;4.10;99.90;;;;;;5034265;28;20228;-74
2024/01/07 00:12:44;;;;;;;12.90;9.60;;;4.20;99.90;;;;;;5033774;28;20268;-75
2024/01/07 00:15:10;;;;;;;14.53;9.10;;;4.10;99.90;;;;;;5016652;28;20205;-74
2024/01/07 00:17:35;;;;;;;13.47;9.80;;;4.10;99.90;;;;;;5033400;28;20436;-77
2024/01/07 00:20:01;;;;;;;14.27;10.17;;;4.20;99.90;;;;;;5034007;28;20504;-75
2024/01/07 00:22:27;;;;;;;12.47;10.00;;;4.20;99.90;;;;;;5034020;28;20582;-75
2024/01/07 00:24:52;;;;;;;12.60;9.80;;;4.20;99.90;;;;;;5033193;28;20584;-75
2024/01/07 00:27:18;;;;;;;12.50;9.83;;;4.10;99.90;;;;;;5034044;28;20221;-75
2024/01/07 00:29:43;;;;;;;13.37;9.97;;;4.10;99.90;;;;;;5033486;28;20189;-76
2024/01/07 00:32:09;;;;;;;12.80;8.87;;;4.20;99.90;;;;;;5033560;28;20247;-76
2024/01/07 00:34:35;;;;;;;12.50;9.77;;;4.20;99.90;;;;;;5033563;28;20210;-74
2024/01/07 00:37:00;;;;;;;10.80;8.47;;;4.20;99.90;;;;;;5015599;28;20703;-76
2024/01/07 00:39:26;;;;;;;14.67;8.80;;;4.20;99.90;;;;;;5033179;28;20182;-75
2024/01/07 00:41:52;;;;;;;13.40;9.30;;;4.10;99.90;;;;;;5033574;28;20301;-75
2024/01/07 00:44:17;;;;;;;12.40;9.60;;;4.10;99.90;;;;;;5033382;28;20610;-73
2024/01/07 00:46:43;;;;;;;12.93;9.20;;;4.20;99.90;;;;;;5032935;28;20189;-74
2024/01/07 00:49:09;;;;;;;14.90;10.53;;;4.10;99.90;;;;;;5032280;28;20235;-74
2024/01/07 00:51:34;;;;;;;13.23;9.43;;;4.10;99.90;;;;;;5014804;28;20178;-73
2024/01/07 00:54:00;;;;;;;13.60;9.63;;;4.10;99.90;;;;;;5033551;28;20260;-76
2024/01/07 00:56:26;;;;;;;12.73;9.93;;;4.10;99.90;;;;;;5033528;28;20178;-75
2024/01/07 00:58:52;;;;;;;12.83;10.50;;;4.10;99.90;;;;;;5033235;28;20178;-75
2024/01/07 01:01:18;;;;;;;14.40;10.80;;;4.10;99.90;;;;;;5033600;28;20942;-76
2024/01/07 01:03:43;;;;;;;15.73;11.97;;;4.00;99.90;;;;;;5016272;28;20278;-74
2024/01/07 01:06:09;;;;;;;16.90;11.27;;;4.10;99.90;;;;;;5032702;28;20197;-73
2024/01/07 01:08:35;;;;;;;14.27;11.50;;;4.10;99.90;;;;;;5026775;28;20652;-77
2024/01/07 01:11:00;;;;;;;15.47;11.50;;;4.00;99.90;;;;;;5032523;28;20186;-74
2024/01/07 01:13:26;;;;;;;17.23;11.43;;;4.00;99.90;;;;;;5033528;28;20175;-77
2024/01/07 01:15:52;;;;;;;15.20;12.03;;;4.00;99.90;;;;;;5033158;28;20237;-74
2024/01/07 01:18:18;;;;;;;18.60;12.90;;;4.00;99.90;;;;;;5032464;28;20182;-75
2024/01/07 01:20:43;;;;;;;19.60;12.50;;;4.10;99.90;;;;;;5033262;28;20528;-78
2024/01/07 01:23:09;;;;;;;14.33;10.33;;;4.10;99.90;;;;;;5031346;28;20186;-77
2024/01/07 01:25:35;;;;;;;13.13;10.80;;;4.10;99.90;;;;;;5033536;28;20186;-76
2024/01/07 01:28:01;;;;;;;15.90;10.77;;;4.00;99.90;;;;;;5032964;28;20250;-73
2024/01/07 01:30:30;;;;;;;16.17;11.50;;;4.00;99.90;;;;;;5033537;28;20516;-76
2024/01/07 01:32:56;;;;;;;12.73;9.57;;;4.00;99.90;;;;;;5032578;28;20190;-77
2024/01/07 01:35:21;;;;;;;14.10;10.50;;;4.00;99.90;;;;;;5015572;28;20464;-73
2024/01/07 01:37:47;;;;;;;13.63;10.53;;;4.00;99.90;;;;;;5015683;28;20710;-74
2024/01/07 01:40:13;;;;;;;14.50;9.50;;;4.00;99.90;;;;;;5015964;28;20188;-75
2024/01/07 01:42:42;;;;;;;13.40;9.87;;;3.90;99.90;;;;;;5032991;28;20235;-73
2024/01/07 01:45:08;;;;;;;14.33;10.10;;;3.90;99.90;;;;;;5033249;28;20891;-79
2024/01/07 01:47:34;;;;;;;13.17;9.63;;;3.90;99.90;;;;;;5016014;28;20424;-75
2024/01/07 01:49:59;;;;;;;14.23;9.90;;;3.90;99.90;;;;;;5000728;28;20425;-75
2024/01/07 01:52:26;;;;;;;14.63;10.20;;;3.90;99.90;;;;;;5019932;28;20220;-73
2024/01/07 01:54:52;;;;;;;14.50;10.50;;;3.90;99.90;;;;;;5036140;28;20296;-78
2024/01/07 01:57:22;;;;;;;18.47;11.53;;;3.90;99.90;;;;;;5037109;28;20983;-74
2024/01/07 01:59:48;;;;;;;14.90;12.20;;;3.90;99.90;;;;;;5035944;28;21082;-76
2024/01/07 02:02:14;;;;;;;16.33;11.83;;;3.90;99.90;;;;;;5019764;28;20432;-78
2024/01/07 02:04:40;;;;;;;17.17;12.13;;;3.90;99.90;;;;;;5001879;28;20429;-74
2024/01/07 02:07:05;;;;;;;17.53;11.60;;;3.80;99.90;;;;;;5037196;28;20913;-74
2024/01/07 02:09:31;;;;;;;17.30;10.93;;;3.90;99.90;;;;;;5036630;28;20493;-78
2024/01/07 02:12:04;;;;;;;19.20;12.00;;;3.80;99.90;;;;;;5036034;28;20186;-76
2024/01/07 02:14:30;;;;;;;14.43;10.53;;;3.80;99.90;;;;;;5035831;28;20282;-76
2024/01/07 02:16:56;;;;;;;17.33;12.17;;;3.80;99.90;;;;;;5018016;28;20548;-73
2024/01/07 02:19:21;;;;;;;16.60;11.27;;;3.80;99.90;;;;;;5036905;28;20197;-77
2024/01/07 02:21:47;;;;;;;13.93;10.17;;;3.80;99.90;;;;;;5035826;28;20428;-73
2024/01/07 02:24:17;;;;;;;14.53;9.93;;;3.80;99.90;;;;;;5037155;28;20182;-75
2024/01/07 02:26:42;;;;;;;14.50;10.70;;;3.80;99.90;;;;;;5018064;28;20431;-73
2024/01/07 02:29:08;;;;;;;14.90;10.93;;;3.80;99.90;;;;;;5036408;28;20487;-77
2024/01/07 02:31:34;;;;;;;14.93;10.90;;;3.80;99.90;;;;;;5036891;28;20941;-73
2024/01/07 02:33:59;;;;;;;16.80;12.23;;;3.70;99.90;;;;;;5035233;28;20229;-74
2024/01/07 02:36:25;;;;;;;16.40;11.57;;;3.80;99.90;;;;;;5036876;28;20190;-75
2024/01/07 02:38:51;;;;;;;19.50;13.37;;;3.80;99.90;;;;;;5035629;28;20954;-73
2024/01/07 02:41:16;;;;;;;19.07;12.60;;;3.70;99.90;;;;;;5036922;28;20210;-73
2024/01/07 02:43:42;;;;;;;19.53;13.40;;;3.70;99.90;;;;;;5017670;28;20189;-75
2024/01/07 02:46:08;;;;;;;23.20;13.70;;;3.70;99.90;;;;;;5018087;28;20596;-74
2024/01/07 02:48:34;;;;;;;20.20;13.83;;;3.70;99.90;;;;;;5036665;28;20227;-73
2024/01/07 02:51:00;;;;;;;22.57;14.60;;;3.70;99.90;;;;;;5035034;28;21183;-76
2024/01/07 02:53:26;;;;;;;20.03;13.63;;;3.70;99.90;;;;;;5036157;28;20904;-74
2024/01/07 02:55:51;;;;;;;19.60;13.83;;;3.80;99.90;;;;;;5034987;28;20476;-76
2024/01/07 02:58:17;;;;;;;21.37;15.07;;;3.80;99.90;;;;;;5036445;28;20182;-75
2024/01/07 03:00:43;;;;;;;21.77;15.80;;;3.80;99.90;;;;;;5034120;28;20200;-77
2024/01/07 03:03:08;;;;;;;20.83;15.50;;;3.70;99.90;;;;;;5036057;28;20265;-74
2024/01/07 03:05:34;;;;;;;21.73;14.83;;;3.70;99.90;;;;;;5035911;28;20929;-73
2024/01/07 03:08:00;;;;;;;21.43;15.23;;;3.70;99.90;;;;;;5035190;28;20213;-74
2024/01/07 03:10:26;;;;;;;22.33;15.43;;;3.70;99.90;;;;;;5036267;28;20213;-75
2024/01/07 03:12:52;;;;;;;25.77;16.70;;;3.70;99.90;;;;;;5034995;28;20198;-77
2024/01/07 03:15:17;;;;;;;23.53;15.70;;;3.60;99.90;;;;;;5036338;28;20472;-76
2024/01/07 03:17:43;;;;;;;23.00;16.00;;;3.60;99.90;;;;;;5035065;28;20663;-76
2024/01/07 03:20:10;;;;;;;23.37;16.17;;;3.60;99.90;;;;;;5036254;28;20182;-75
2024/01/07 03:22:35;;;;;;;19.67;14.80;;;3.60;99.90;;;;;;5002428;28;20451;-75
2024/01/07 03:25:01;;;;;;;23.03;15.97;;;3.60;99.90;;;;;;5034845;28;20948;-75
2024/01/07 03:27:27;;;;;;;24.27;16.67;;;3.60;99.90;;;;;;5036071;28;20269;-74
2024/01/07 03:29:53;;;;;;;21.43;15.47;;;3.70;99.90;;;;;;5016760;28;20586;-73
2024/01/07 03:32:18;;;;;;;20.70;16.23;;;3.60;99.90;;;;;;5035809;28;20178;-77
2024/01/07 03:34:44;;;;;;;22.17;16.90;;;3.60;99.90;;;;;;5034546;28;20217;-74
2024/01/07 03:37:10;;;;;;;23.50;16.17;;;3.60;99.90;;;;;;5033700;28;20674;-76
2024/01/07 03:39:35;;;;;;;22.10;17.23;;;3.50;99.90;;;;;;5035328;28;20181;-77
2024/01/07 03:42:01;;;;;;;27.33;18.50;;;3.50;99.90;;;;;;5034305;28;20198;-73
2024/01/07 03:44:27;;;;;;;22.80;16.53;;;3.50;99.90;;;;;;5035695;28;20235;-74
2024/01/07 03:46:52;;;;;;;21.13;16.30;;;3.50;99.90;;;;;;5034094;28;20194;-76
2024/01/07 03:49:18;;;;;;;21.63;15.33;;;3.50;99.90;;;;;;5017824;28;20182;-75
2024/01/07 03:51:44;;;;;;;16.13;13.70;;;3.50;99.90;;;;;;5034328;28;20213;-75
2024/01/07 03:54:09;;;;;;;18.00;13.90;;;3.50;99.90;;;;;;5035277;28;20522;-76
2024/01/07 03:56:35;;;;;;;17.27;13.47;;;3.50;99.90;;;;;;5034679;28;20239;-73
2024/01/07 03:59:01;;;;;;;16.50;12.90;;;3.50;99.90;;;;;;5033801;28;20584;-76
2024/01/07 04:01:26;;;;;;;16.53;13.80;;;3.50;99.90;;;;;;5035201;28;20232;-75
2024/01/07 04:03:52;;;;;;;17.07;13.13;;;3.50;99.90;;;;;;5034018;28;20185;-77
2024/01/07 04:06:18;;;;;;;16.33;12.90;;;3.40;99.90;;;;;;5035090;28;20178;-74
2024/01/07 04:08:43;;;;;;;17.70;13.50;;;3.40;99.90;;;;;;5034535;28;20268;-76
2024/01/07 04:11:09;;;;;;;17.40;13.47;;;3.40;99.90;;;;;;5034877;28;20193;-77
2024/01/07 04:13:35;;;;;;;15.67;12.47;;;3.40;99.90;;;;;;5034597;28;20182;-74
2024/01/07 04:16:00;;;;;;;14.90;12.50;;;3.40;99.90;;;;;;5034014;28;20230;-73
2024/01/07 04:18:26;;;;;;;14.53;12.40;;;3.40;99.90;;;;;;5034748;28;20202;-76
2024/01/07 04:20:52;;;;;;;18.77;13.60;;;3.30;99.90;;;;;;5033534;28;20240;-76
2024/01/07 04:23:17;;;;;;;19.80;13.10;;;3.30;99.90;;;;;;5035268;28;20920;-74
2024/01/07 04:25:44;;;;;;;16.13;13.60;;;3.30;99.90;;;;;;5033213;28;20189;-76
2024/01/07 04:28:09;;;;;;;17.93;13.30;;;3.30;99.90;;;;;;5034198;28;20187;-77
2024/01/07 04:30:35;;;;;;;17.93;13.37;;;3.30;99.90;;;;;;5033781;28;20424;-78
2024/01/07 04:33:01;;;;;;;22.37;14.53;;;3.20;99.90;;;;;;5034202;28;20536;-76
2024/01/07 04:35:26;;;;;;;20.33;13.40;;;3.20;99.90;;;;;;5034502;28;20248;-74
2024/01/07 04:37:52;;;;;;;19.67;14.07;;;3.30;99.90;;;;;;5015892;28;20193;-76
2024/01/07 04:40:18;;;;;;;17.87;12.10;;;3.30;99.90;;;;;;5034892;28;20182;-74
2024/01/07 04:42:43;;;;;;;18.10;13.30;;;3.20;99.90;;;;;;5033708;28;20212;-77
2024/01/07 04:45:09;;;;;;;17.53;13.50;;;3.20;99.90;;;;;;5034483;28;20178;-75
2024/01/07 04:47:35;;;;;;;17.90;12.80;;;3.20;99.90;;;;;;5033904;28;20178;-75
2024/01/07 04:50:01;;;;;;;18.13;12.80;;;3.20;99.90;;;;;;5043244;28;20191;-74
2024/01/07 04:52:27;;;;;;;19.33;13.70;;;3.20;99.90;;;;;;5046119;28;20448;-74
2024/01/07 04:54:54;;;;;;;19.27;14.37;;;3.30;99.90;;;;;;5044152;28;20472;-78
2024/01/07 04:57:20;;;;;;;17.33;13.70;;;3.30;99.90;;;;;;5035147;28;20436;-74
2024/01/07 04:59:50;;;;;;;20.83;14.80;;;3.30;99.90;;;;;;5031988;28;20933;-74
2024/01/07 05:02:15;;;;;;;19.30;16.07;;;3.20;99.90;;;;;;5035037;28;20783;-75
2024/01/07 05:04:42;;;;;;;20.63;15.40;;;3.20;99.90;;;;;;5033500;28;20518;-75
2024/01/07 05:07:08;;;;;;;20.57;13.73;;;3.20;99.90;;;;;;5033809;28;20522;-74
2024/01/07 05:09:33;;;;;;;20.40;13.60;;;3.20;99.90;;;;;;5015816;28;20417;-74
2024/01/07 05:12:00;;;;;;;19.77;14.87;;;3.10;99.90;;;;;;5033981;28;20178;-76
2024/01/07 05:14:26;;;;;;;21.23;14.80;;;3.10;99.90;;;;;;5033840;28;20208;-73
2024/01/07 05:16:53;;;;;;;17.50;12.80;;;3.20;99.90;;;;;;5032280;28;20542;-77
2024/01/07 05:19:19;;;;;;;17.20;12.80;;;3.20;99.90;;;;;;5034289;28;20512;-75
2024/01/07 05:21:44;;;;;;;18.93;14.20;;;3.10;99.90;;;;;;5033420;28;20523;-74
2024/01/07 05:24:10;;;;;;;17.83;14.20;;;3.10;99.90;;;;;;5034831;28;20240;-74
2024/01/07 05:26:41;;;;;;;19.30;14.97;;;3.00;99.90;;;;;;5037377;28;20236;-73
2024/01/07 05:29:06;;;;;;;21.40;14.57;;;3.00;99.90;;;;;;5038151;28;20189;-74
2024/01/07 05:31:32;;;;;;;16.63;12.50;;;2.90;99.90;;;;;;5036232;28;20814;-73
2024/01/07 05:33:58;;;;;;;19.23;14.07;;;2.90;99.90;;;;;;5037968;28;20232;-75
2024/01/07 05:36:24;;;;;;;21.53;13.47;;;2.90;99.90;;;;;;5037633;28;20205;-75
2024/01/07 05:38:49;;;;;;;17.50;13.20;;;2.90;99.90;;;;;;5019470;28;20443;-77
2024/01/07 05:41:15;;;;;;;18.10;12.73;;;3.00;99.90;;;;;;5037964;28;20244;-75
2024/01/07 05:43:41;;;;;;;18.03;13.13;;;3.00;99.90;;;;;;5037027;28;20178;-75
2024/01/07 05:46:07;;;;;;;17.13;12.77;;;2.90;99.90;;;;;;5036326;28;20185;-76
2024/01/07 05:48:46;;;;;;;18.60;14.23;;;3.00;99.90;;;;;;5036419;28;20707;-76
2024/01/07 05:51:12;;;;;;;16.90;12.80;;;3.10;99.90;;;;;;5036894;28;20252;-72
2024/01/07 05:53:39;;;;;;;18.37;13.80;;;3.00;99.90;;;;;;5036781;28;20511;-74
2024/01/07 05:56:05;;;;;;;20.17;14.10;;;3.10;99.90;;;;;;5037702;28;20509;-75
2024/01/07 05:58:30;;;;;;;19.33;12.90;;;3.10;99.90;;;;;;5038399;28;21090;-74
2024/01/07 06:00:56;;;;;;;20.40;14.10;;;3.10;99.90;;;;;;5038762;28;20424;-78
2024/01/07 06:03:22;;;;;;;20.70;14.83;;;3.10;99.90;;;;;;5038318;28;20190;-74
2024/01/07 06:05:47;;;;;;;17.67;13.03;;;3.10;99.90;;;;;;5002551;28;20495;-74
2024/01/07 06:08:13;;;;;;;17.23;14.07;;;3.10;99.90;;;;;;5038239;28;20179;-77
2024/01/07 06:10:40;;;;;;;20.37;14.43;;;3.00;99.90;;;;;;5037777;28;20421;-75
2024/01/07 06:13:05;;;;;;;20.67;14.53;;;3.00;99.90;;;;;;5038490;28;20181;-75
2024/01/07 06:15:31;;;;;;;20.23;14.33;;;3.00;99.90;;;;;;5037121;28;20533;-73
2024/01/07 06:17:57;;;;;;;21.60;14.37;;;2.90;99.90;;;;;;5037866;28;20216;-74
2024/01/07 06:20:23;;;;;;;19.93;14.37;;;2.90;99.90;;;;;;5036873;28;20189;-74
2024/01/07 06:22:49;;;;;;;20.37;14.07;;;2.90;99.90;;;;;;5038258;28;20183;-75
2024/01/07 06:25:14;;;;;;;20.63;15.27;;;3.00;99.90;;;;;;5037064;28;20425;-75
2024/01/07 06:27:41;;;;;;;20.77;14.63;;;2.90;99.90;;;;;;5037628;28;20190;-77
2024/01/07 06:30:07;;;;;;;19.90;15.40;;;2.90;99.90;;;;;;5038171;28;20223;-73
2024/01/07 06:32:33;;;;;;;22.43;14.73;;;2.90;99.90;;;;;;5002737;28;20424;-77
2024/01/07 06:35:00;;;;;;;21.00;15.70;;;2.80;99.90;;;;;;5037034;28;20468;-76
2024/01/07 06:37:28;;;;;;;23.63;15.97;;;2.80;99.90;;;;;;5036557;28;20929;-78
2024/01/07 06:39:54;;;;;;;21.13;15.07;;;2.90;99.90;;;;;;5037340;28;20432;-78
2024/01/07 06:42:20;;;;;;;22.00;15.83;;;2.90;99.90;;;;;;5036845;28;20477;-77
2024/01/07 06:44:46;;;;;;;21.27;15.23;;;2.80;99.90;;;;;;5037198;28;20515;-73
2024/01/07 06:47:11;;;;;;;21.13;16.87;;;2.80;99.90;;;;;;5037292;28;20964;-74
2024/01/07 06:49:38;;;;;;;20.80;15.90;;;2.80;99.90;;;;;;5037435;28;20240;-78
2024/01/07 06:52:05;;;;;;;27.80;18.00;;;2.80;99.90;;;;;;5036585;28;20200;-76
2024/01/07 06:54:30;;;;;;;23.60;14.80;;;2.70;99.90;;;;;;5032558;28;20467;-74
2024/01/07 06:56:56;;;;;;;22.03;16.23;;;2.70;99.90;;;;;;5018164;28;20942;-73
2024/01/07 06:59:21;;;;;;;24.10;16.93;;;2.70;99.90;;;;;;5036244;28;20186;-77
2024/01/07 07:01:47;;;;;;;27.17;15.90;;;2.80;99.90;;;;;;5034599;28;20186;-74
2024/01/07 07:04:13;;;;;;;22.53;14.30;;;2.70;99.90;;;;;;5000835;28;20202;-76
2024/01/07 07:06:38;;;;;;;21.33;15.47;;;2.80;99.90;;;;;;5034154;28;20186;-75
2024/01/07 07:09:04;;;;;;;23.67;16.30;;;2.80;99.90;;;;;;5035601;28;20256;-76
2024/01/07 07:11:30;;;;;;;22.13;15.90;;;2.80;99.90;;;;;;5031274;28;20250;-74
2024/01/07 07:13:56;;;;;;;21.50;14.83;;;2.80;99.90;;;;;;5015189;28;20657;-76
2024/01/07 07:16:22;;;;;;;18.63;14.37;;;2.70;99.90;;;;;;5016333;28;21133;-74
2024/01/07 07:18:48;;;;;;;21.30;15.70;;;2.80;99.90;;;;;;5035751;28;20235;-76
2024/01/07 07:21:13;;;;;;;18.30;13.83;;;2.80;99.90;;;;;;5034294;28;20437;-78
2024/01/07 07:23:39;;;;;;;22.27;14.77;;;2.80;99.90;;;;;;5016856;28;20243;-78
2024/01/07 07:26:05;;;;;;;16.23;12.60;;;2.80;99.90;;;;;;5032287;28;20182;-78
2024/01/07 07:28:30;;;;;;;17.67;12.70;;;2.80;99.90;;;;;;5033434;28;20185;-77
2024/01/07 07:30:56;;;;;;;16.80;13.10;;;2.70;99.90;;;;;;5032753;28;20833;-74
2024/01/07 07:33:21;;;;;;;17.20;13.00;;;2.80;99.90;;;;;;5016551;28;20182;-75
2024/01/07 07:35:47;;;;;;;15.90;12.30;;;2.80;99.90;;;;;;5034356;28;20354;-75
2024/01/07 07:38:13;;;;;;;14.70;11.80;;;2.80;99.90;;;;;;5035008;28;21172;-75
2024/01/07 07:40:39;;;;;;;15.00;10.40;;;2.70;99.90;;;;;;5033031;28;20204;-74
2024/01/07 07:43:04;;;;;;;14.03;10.63;;;2.70;99.90;;;;;;5035215;28;20447;-72
2024/01/07 07:45:30;;;;;;;13.93;10.90;;;2.70;99.90;;;;;;5015166;28;20263;-75
2024/01/07 07:47:56;;;;;;;14.27;10.37;;;2.60;99.90;;;;;;5030905;28;20190;-73
2024/01/07 07:50:21;;;;;;;10.80;9.40;;;2.60;99.90;;;;;;5012129;28;20599;-73
2024/01/07 07:52:47;;;;;;;15.40;10.20;;;2.60;99.90;;;;;;5015192;28;20185;-72
2024/01/07 07:55:13;;;;;;;11.27;9.53;;;2.50;99.90;;;;;;5033375;28;20236;-76
2024/01/07 07:57:38;;;;;;;12.53;9.27;;;2.50;99.90;;;;;;5033044;28;20256;-76
2024/01/07 08:00:06;;;;;;;10.77;9.30;;;2.50;99.90;;;;;;5032197;28;20432;-76
2024/01/07 08:02:32;;;;;;;12.00;9.37;;;2.60;99.90;;;;;;5033286;28;20195;-73
2024/01/07 08:04:57;;;;;;;14.10;10.47;;;2.60;99.90;;;;;;5033607;28;20886;-75
2024/01/07 08:07:23;;;;;;;12.53;10.17;;;2.50;99.90;;;;;;5034033;28;20180;-75
2024/01/07 08:09:49;;;;;;;10.90;9.33;;;2.50;99.90;;;;;;5033174;28;20543;-74
2024/01/07 08:12:14;;;;;;;14.10;9.83;;;2.50;99.90;;;;;;5034083;28;20206;-73
2024/01/07 08:14:43;;;;;;;14.10;10.47;;;2.60;99.90;;;;;;5032413;28;20676;-76
2024/01/07 08:17:09;;;;;;;15.20;11.33;;;2.50;99.90;;;;;;5012334;28;20264;-77
2024/01/07 08:19:36;;;;;;;15.40;11.83;;;2.50;99.90;;;;;;5031749;28;21128;-76
2024/01/07 08:22:02;;;;;;;15.53;11.70;;;2.40;99.90;;;;;;5031874;28;20705;-78
2024/01/07 08:24:27;;;;;;;15.13;12.00;;;2.30;99.90;;;;;;5032175;28;20429;-76
2024/01/07 08:26:53;;;;;;;15.23;12.20;;;2.20;99.90;;;;;;5033737;28;20217;-75
2024/01/07 08:29:19;;;;;;;16.17;11.67;;;2.30;99.90;;;;;;5013783;28;20193;-74
2024/01/07 08:31:44;;;;;;;14.23;11.27;;;2.30;99.90;;;;;;5015653;28;20182;-75
2024/01/07 08:34:10;;;;;;;15.73;11.13;;;2.30;99.90;;;;;;5033171;28;20302;-77
2024/01/07 08:36:35;;;;;;;17.13;11.87;;;2.30;99.90;;;;;;5032444;28;20225;-75
2024/01/07 08:39:01;;;;;;;14.57;11.17;;;2.40;99.90;;;;;;5033243;28;20703;-76
2024/01/07 08:41:27;;;;;;;15.20;11.40;;;2.40;99.90;;;;;;5031125;28;20726;-77
2024/01/07 08:43:53;;;;;;;16.10;10.70;;;2.50;99.90;;;;;;5032597;28;20506;-75
2024/01/07 08:46:21;;;;;;;13.03;10.53;;;2.50;99.90;;;;;;5031629;28;20190;-76
2024/01/07 08:48:47;;;;;;;13.70;10.67;;;2.40;99.90;;;;;;5033429;28;20179;-75
2024/01/07 08:51:13;;;;;;;15.40;10.00;;;2.50;99.90;;;;;;5033038;28;20805;-78
2024/01/07 08:53:40;;;;;;;17.10;11.03;;;2.40;99.90;;;;;;5032140;28;20189;-77
2024/01/07 08:56:06;;;;;;;17.00;11.97;;;2.50;99.90;;;;;;4998511;28;20556;-74
2024/01/07 08:58:32;;;;;;;13.20;10.77;;;2.50;99.90;;;;;;5032031;28;20451;-75
2024/01/07 09:00:58;;;;;;;14.40;11.90;;;2.40;99.90;;;;;;5029607;28;20939;-76
2024/01/07 09:03:24;;;;;;;15.90;10.43;;;2.40;99.90;;;;;;5031311;28;20690;-74
2024/01/07 09:05:50;;;;;;;12.47;10.17;;;2.40;99.90;;;;;;5031464;28;20185;-75
2024/01/07 09:08:15;;;;;;;15.50;10.87;;;2.40;99.90;;;;;;5031097;28;20186;-75
2024/01/07 09:10:41;;;;;;;12.90;10.50;;;2.50;99.90;;;;;;5031622;28;20471;-77
2024/01/07 09:13:07;;;;;;;13.70;10.93;;;2.50;99.90;;;;;;5029995;28;22111;-79
2024/01/07 09:15:32;;;;;;;12.80;10.13;;;2.40;99.90;;;;;;5016313;28;20225;-77
2024/01/07 09:17:58;;;;;;;12.77;9.77;;;2.40;99.90;;;;;;5030037;28;20256;-76
2024/01/07 09:20:24;;;;;;;12.23;10.27;;;2.30;99.90;;;;;;5026820;28;20190;-76
2024/01/07 09:22:50;;;;;;;12.50;10.13;;;2.30;99.90;;;;;;5009353;28;20195;-77
2024/01/07 09:25:16;;;;;;;14.27;10.20;;;2.30;99.90;;;;;;5027943;28;20935;-77
2024/01/07 09:27:42;;;;;;;11.03;9.90;;;2.30;99.90;;;;;;5029632;28;20197;-78
2024/01/07 09:30:10;;;;;;;12.10;10.00;;;2.40;99.90;;;;;;5027840;28;20495;-77
2024/01/07 09:32:36;;;;;;;14.03;10.23;;;2.40;99.90;;;;;;5029130;28;20497;-75
2024/01/07 09:35:02;;;;;;;10.93;9.37;;;2.40;99.90;;;;;;5011205;28;20521;-71
2024/01/07 09:37:28;;;;;;;10.33;9.20;;;2.40;99.90;;;;;;5029899;28;20975;-75
2024/01/07 09:39:54;;;;;;;10.30;9.03;;;2.40;99.90;;;;;;5012644;28;20202;-75
2024/01/07 09:42:19;;;;;;;13.03;9.90;;;2.40;99.90;;;;;;5029193;28;20296;-74
2024/01/07 09:44:46;;;;;;;11.17;9.97;;;2.40;99.90;;;;;;5029218;28;20425;-73
2024/01/07 09:47:14;;;;;;;11.77;9.37;;;2.40;99.90;;;;;;5030466;28;20244;-74
2024/01/07 09:49:41;;;;;;;10.17;8.80;;;2.40;99.90;;;;;;5015576;28;20434;-73
2024/01/07 09:52:08;;;;;;;11.97;9.90;;;2.40;99.90;;;;;;5030479;28;20896;-75
2024/01/07 09:54:38;;;;;;;12.53;9.30;;;2.30;99.90;;;;;;5029375;28;20414;-76
2024/01/07 09:57:06;;;;;;;12.70;9.03;;;2.30;99.90;;;;;;5029319;28;20439;-75
2024/01/07 09:59:32;;;;;;;13.00;9.27;;;2.40;99.90;;;;;;5029225;28;20485;-73
2024/01/07 10:01:58;;;;;;;10.40;8.50;;;2.40;99.90;;;;;;4985060;28;21282;-75
2024/01/07 10:04:25;;;;;;;10.33;8.80;;;2.40;99.90;;;;;;5030357;28;20444;-73
2024/01/07 10:06:52;;;;;;;11.50;9.40;;;2.30;99.90;;;;;;5027376;28;20833;-75
2024/01/07 10:09:21;;;;;;;10.33;8.23;;;2.30;99.90;;;;;;5025630;28;20441;-73
2024/01/07 10:11:47;;;;;;;10.50;8.30;;;2.20;99.90;;;;;;5014976;28;20436;-73
2024/01/07 10:14:13;;;;;;;11.83;8.70;;;2.20;99.90;;;;;;5032106;28;20466;-74
2024/01/07 10:16:39;;;;;;;10.60;8.70;;;2.30;99.90;;;;;;5033058;28;20223;-75
2024/01/07 10:19:07;;;;;;;11.90;8.90;;;2.30;99.90;;;;;;5034414;28;20425;-73
2024/01/07 10:21:33;;;;;;;8.73;7.83;;;2.30;99.90;;;;;;5033317;28;20701;-74
2024/01/07 10:24:12;;;;;;;14.77;8.97;;;2.30;99.90;;;;;;5034749;28;20486;-75
2024/01/07 10:26:40;;;;;;;11.87;7.87;;;2.30;99.90;;;;;;5034296;28;20459;-74
2024/01/07 10:29:06;;;;;;;7.33;6.17;;;2.30;99.90;;;;;;5033508;28;20574;-75
2024/01/07 10:31:32;;;;;;;8.47;6.77;;;2.30;99.90;;;;;;5032477;28;20440;-73
2024/01/07 10:33:58;;;;;;;10.50;6.97;;;2.30;99.90;;;;;;5034789;28;20823;-74
2024/01/07 10:36:25;;;;;;;10.00;7.00;;;2.30;99.90;;;;;;5033097;28;20496;-73
2024/01/07 10:38:51;;;;;;;7.77;6.20;;;2.30;99.90;;;;;;5032812;28;20209;-71
2024/01/07 10:41:20;;;;;;;8.93;6.50;;;2.20;99.90;;;;;;5034199;28;20439;-74
2024/01/07 10:43:49;;;;;;;8.63;6.40;;;2.20;99.90;;;;;;5033107;28;20431;-75
2024/01/07 10:46:16;;;;;;;11.83;6.67;;;2.20;99.90;;;;;;5033683;28;20919;-77
2024/01/07 10:49:04;;;;;;;12.83;7.50;;;2.20;99.90;;;;;;5032600;28;20417;-77
2024/01/07 10:51:34;;;;;;;8.97;6.33;;;2.10;99.90;;;;;;5033632;28;20543;-77
2024/01/07 10:54:00;;;;;;;9.57;6.67;;;2.10;99.90;;;;;;5032773;28;20436;-76
2024/01/07 10:56:38;;;;;;;8.97;6.67;;;2.10;99.90;;;;;;5032450;28;20585;-74
2024/01/07 10:59:04;;;;;;;10.87;7.83;;;2.10;99.90;;;;;;5033985;28;20423;-75
2024/01/07 11:01:30;;;;;;;8.10;6.07;;;2.10;99.90;;;;;;5033444;28;20470;-77
2024/01/07 11:04:17;;;;;;;8.40;6.70;;;2.20;99.90;;;;;;5002624;28;20656;-75
2024/01/07 11:07:02;;;;;;;9.23;6.70;;;2.30;99.90;;;;;;5033791;28;20425;-76
2024/01/07 11:09:37;;;;;;;8.60;6.70;;;2.40;99.90;;;;;;5034312;28;20614;-76
2024/01/07 11:12:04;;;;;;;7.73;5.63;;;2.30;99.90;;;;;;5034237;28;20486;-74
2024/01/07 11:14:45;;;;;;;8.37;5.93;;;2.30;99.90;;;;;;5015942;28;20445;-76
2024/01/07 11:17:13;;;;;;;10.10;7.40;;;2.30;99.90;;;;;;5033662;28;20456;-75
2024/01/07 11:19:52;;;;;;;9.40;6.30;;;2.30;99.90;;;;;;5033500;28;20428;-76
2024/01/07 11:22:25;;;;;;;7.00;6.17;;;2.30;99.90;;;;;;5031678;28;20421;-77
2024/01/07 11:24:51;;;;;;;7.60;6.00;;;2.30;99.90;;;;;;5033050;28;20440;-74
2024/01/07 11:27:17;;;;;;;5.67;5.07;;;2.30;99.90;;;;;;5031435;28;20488;-73
2024/01/07 11:29:43;;;;;;;7.33;6.17;;;2.30;99.90;;;;;;5032635;28;21059;-74
2024/01/07 11:32:13;;;;;;;6.97;6.23;;;2.30;99.90;;;;;;5032357;28;20425;-77
2024/01/07 11:34:52;;;;;;;7.77;6.30;;;2.40;99.90;;;;;;5032100;28;20189;-77
2024/01/07 11:37:18;;;;;;;6.40;5.73;;;2.40;99.90;;;;;;5032748;28;21000;-76
2024/01/07 11:39:47;;;;;;;5.57;5.00;;;2.30;99.90;;;;;;5033052;28;20473;-73
2024/01/07 11:42:13;;;;;;;5.60;5.10;;;2.30;99.90;;;;;;5032596;28;20212;-73
2024/01/07 11:44:47;;;;;;;6.50;5.13;;;2.20;99.90;;;;;;5033096;28;20433;-73
2024/01/07 11:47:13;;;;;;;7.53;5.20;;;2.20;99.90;;;;;;5032353;28;20186;-77
2024/01/07 11:49:39;;;;;;;5.47;4.87;;;2.20;99.90;;;;;;5037285;28;20426;-75
2024/01/07 11:52:05;;;;;;;6.30;5.20;;;2.10;99.90;;;;;;5035186;28;20186;-74
2024/01/07 11:54:31;;;;;;;5.40;4.30;;;2.10;99.90;;;;;;5023148;28;20432;-76
2024/01/07 11:56:57;;;;;;;6.00;5.40;;;2.10;99.90;;;;;;5040743;28;20429;-74
2024/01/07 11:59:23;;;;;;;6.80;5.63;;;2.00;99.90;;;;;;5040116;28;20462;-73
2024/01/07 12:01:49;;;;;;;6.63;5.87;;;2.00;99.90;;;;;;5032496;28;20239;-74
2024/01/07 12:04:15;;;;;;;7.80;5.90;;;2.10;99.90;;;;;;5033698;28;20432;-75
2024/01/07 12:06:40;;;;;;;6.80;5.23;;;2.10;99.90;;;;;;5015289;28;20444;-77
2024/01/07 12:09:07;;;;;;;5.87;4.83;;;2.20;99.90;;;;;;5031962;28;20704;-76
2024/01/07 12:11:33;;;;;;;6.07;5.43;;;2.10;99.90;;;;;;5014220;28;20195;-73
2024/01/07 12:13:59;;;;;;;5.93;5.10;;;2.00;99.90;;;;;;5031219;28;20545;-74
2024/01/07 12:16:25;;;;;;;4.03;3.63;;;2.00;99.90;;;;;;5032459;28;20539;-77
2024/01/07 12:18:51;;;;;;;7.90;5.13;;;1.90;99.90;;;;;;5032407;28;20429;-74
2024/01/07 12:21:21;;;;;;;4.60;4.20;;;2.00;99.90;;;;;;5032233;28;20202;-76
2024/01/07 12:23:50;;;;;;;4.70;4.23;;;2.00;99.90;;;;;;5000128;28;20657;-74
2024/01/07 12:26:16;;;;;;;5.47;4.63;;;2.00;99.90;;;;;;5031935;28;20453;-72
2024/01/07 12:28:43;;;;;;;6.40;4.70;;;2.00;99.90;;;;;;5032020;28;20488;-76
2024/01/07 12:31:09;;;;;;;5.03;4.30;;;2.00;99.90;;;;;;5029944;28;20186;-77
2024/01/07 12:33:37;;;;;;;5.67;5.17;;;1.80;99.90;;;;;;5032916;28;20812;-75
2024/01/07 12:36:04;;;;;;;5.03;4.30;;;1.80;99.90;;;;;;5029691;28;20214;-77